Time;durP1;ratioP1;P1;durP2;ratioP2;P2;SDS_P1;SDS_P2;PMS_P1;PMS_P2;Temp;Humidity;BMP_temperature;BMP_pressure;BME280_temperature;BME280_humidity;BME280_pressure;Samples;Min_cycle;Max_cycle;Signal;HPM_P1;HPM_P2
2022/05/27 00:01:26;;;;;;;18.60;3.05;;;13.80;99.90;;;;;;5039001;28;20123;-62
2022/05/27 00:03:52;;;;;;;18.90;3.28;;;13.70;99.90;;;;;;5016991;28;20033;-62
2022/05/27 00:06:19;;;;;;;15.98;3.03;;;13.60;99.90;;;;;;5007045;28;20641;-62
2022/05/27 00:08:45;;;;;;;20.20;3.40;;;13.60;99.90;;;;;;5046340;28;20036;-63
2022/05/27 00:11:12;;;;;;;20.60;2.75;;;13.70;99.90;;;;;;5034063;28;20510;-62
2022/05/27 00:13:39;;;;;;;20.50;3.20;;;13.70;99.90;;;;;;5035248;28;20403;-63
2022/05/27 00:16:05;;;;;;;23.45;3.55;;;13.70;99.90;;;;;;5037264;28;20395;-61
2022/05/27 00:18:31;;;;;;;22.08;3.10;;;13.60;99.90;;;;;;5037537;28;20046;-61
2022/05/27 00:20:57;;;;;;;19.58;2.92;;;13.50;99.90;;;;;;5026156;28;20041;-61
2022/05/27 00:23:23;;;;;;;20.85;2.85;;;13.40;99.90;;;;;;5045789;28;20376;-59
2022/05/27 00:25:49;;;;;;;21.25;2.97;;;13.30;99.90;;;;;;5036041;28;20037;-60
2022/05/27 00:28:15;;;;;;;20.52;2.83;;;13.30;99.90;;;;;;5041046;28;20056;-61
2022/05/27 00:30:41;;;;;;;18.20;3.00;;;13.30;99.90;;;;;;5036440;28;20747;-61
2022/05/27 00:33:07;;;;;;;14.88;2.10;;;13.20;99.90;;;;;;5032502;28;20077;-61
2022/05/27 00:35:33;;;;;;;17.33;2.95;;;13.00;99.90;;;;;;5039433;28;20041;-60
2022/05/27 00:37:59;;;;;;;17.30;2.92;;;13.10;99.90;;;;;;5048731;28;20441;-60
2022/05/27 00:40:33;;;;;;;17.33;2.65;;;13.00;99.90;;;;;;5029471;28;20069;-60
2022/05/27 00:42:58;;;;;;;;;;;12.80;99.90;;;;;;5035282;28;20033;-60
2022/05/27 00:45:26;;;;;;;14.95;2.25;;;12.70;99.90;;;;;;5038315;28;19924;-60
2022/05/27 00:47:54;;;;;;;15.93;2.30;;;12.70;99.90;;;;;;5036332;28;20045;-60
2022/05/27 00:50:26;;;;;;;16.05;1.90;;;12.60;99.90;;;;;;5037790;28;20064;-60
2022/05/27 00:52:54;;;;;;;18.45;2.30;;;12.60;99.90;;;;;;5040834;28;20496;-60
2022/05/27 00:55:28;;;;;;;14.07;2.15;;;12.50;99.90;;;;;;5029156;28;20037;-60
2022/05/27 00:58:06;;;;;;;15.35;2.50;;;12.50;99.90;;;;;;5030971;28;20502;-60
2022/05/27 01:00:33;;;;;;;13.32;2.22;;;12.40;99.90;;;;;;5015788;28;20060;-60
2022/05/27 01:03:00;;;;;;;16.75;2.05;;;12.40;99.90;;;;;;5045032;28;20391;-61
2022/05/27 01:05:26;;;;;;;14.00;1.90;;;12.30;99.90;;;;;;5037532;28;20053;-61
2022/05/27 01:07:55;;;;;;;13.40;2.15;;;12.40;99.90;;;;;;5036992;28;20052;-61
2022/05/27 01:10:23;;;;;;;15.30;2.65;;;12.30;99.90;;;;;;5039041;28;20083;-60
2022/05/27 01:12:51;;;;;;;16.10;2.05;;;12.20;99.90;;;;;;5036373;28;20563;-61
2022/05/27 01:15:20;;;;;;;18.33;2.60;;;12.20;99.90;;;;;;5035916;28;20079;-60
2022/05/27 01:17:48;;;;;;;20.02;2.63;;;12.20;99.90;;;;;;5033579;28;20037;-60
2022/05/27 01:20:26;;;;;;;13.73;1.75;;;12.10;99.90;;;;;;5034537;28;20037;-61
2022/05/27 01:23:13;;;;;;;12.98;2.00;;;12.10;99.90;;;;;;5036966;28;20044;-61
2022/05/27 01:26:07;;;;;;;16.88;2.05;;;12.00;99.90;;;;;;5036690;28;20049;-61
2022/05/27 01:28:53;;;;;;;13.57;1.58;;;11.90;99.90;;;;;;5039205;28;20055;-61
2022/05/27 01:31:47;;;;;;;16.80;1.58;;;11.90;99.90;;;;;;5032349;28;20087;-60
2022/05/27 01:34:39;;;;;;;11.38;1.60;;;11.90;99.90;;;;;;5031852;28;20045;-61
2022/05/27 01:37:29;;;;;;;11.82;1.63;;;11.90;99.90;;;;;;5039014;28;20502;-62
2022/05/27 01:40:09;;;;;;;14.55;2.22;;;11.90;99.90;;;;;;5035590;28;20507;-61
2022/05/27 01:43:09;;;;;;;14.85;2.08;;;11.90;99.90;;;;;;5038153;28;20129;-61
2022/05/27 01:45:41;;;;;;;15.20;1.67;;;11.80;99.90;;;;;;5038759;28;20438;-61
2022/05/27 01:48:30;;;;;;;15.05;1.88;;;11.90;99.90;;;;;;5034011;28;20033;-61
2022/05/27 01:51:48;;;;;;;11.25;1.73;;;11.80;99.90;;;;;;5030597;28;20040;-61
2022/05/27 01:54:16;;;;;;;14.18;1.55;;;11.90;99.90;;;;;;5004242;28;20080;-61
2022/05/27 01:56:49;;;;;;;11.60;1.50;;;11.80;99.90;;;;;;5036166;28;20452;-61
2022/05/27 01:59:27;;;;;;;11.45;1.83;;;11.80;99.90;;;;;;5027867;28;20045;-61
2022/05/27 02:02:11;;;;;;;9.35;1.30;;;11.60;99.90;;;;;;5033447;28;20064;-60
2022/05/27 02:04:47;;;;;;;11.88;1.60;;;11.60;99.90;;;;;;5037337;28;20392;-61
2022/05/27 02:07:34;;;;;;;11.88;1.40;;;11.50;99.90;;;;;;5032450;28;20396;-62
2022/05/27 02:10:05;;;;;;;13.73;1.67;;;11.50;99.90;;;;;;5034868;28;20041;-61
2022/05/27 02:12:39;;;;;;;14.95;1.92;;;11.50;99.90;;;;;;5017467;28;20056;-62
2022/05/27 02:15:24;;;;;;;12.15;1.35;;;11.40;99.90;;;;;;5032165;28;20076;-62
2022/05/27 02:17:56;;;;;;;14.77;1.55;;;11.30;99.90;;;;;;5035744;28;20516;-62
2022/05/27 02:20:32;;;;;;;20.63;2.40;;;11.20;99.90;;;;;;5021282;28;20041;-62
2022/05/27 02:23:04;;;;;;;15.40;1.95;;;11.20;99.90;;;;;;5026081;28;20402;-62
2022/05/27 02:25:34;;;;;;;17.50;2.10;;;11.30;99.90;;;;;;5037936;28;20045;-62
2022/05/27 02:28:19;;;;;;;17.13;2.33;;;11.20;99.90;;;;;;5030729;28;20089;-62
2022/05/27 02:30:48;;;;;;;12.43;1.60;;;11.10;99.90;;;;;;5050515;28;20097;-59
2022/05/27 02:36:23;;;;;;;18.90;2.33;;;11.10;99.90;;;;;;5022013;28;20483;-61
2022/05/27 02:38:49;;;;;;;19.23;2.25;;;11.00;99.90;;;;;;5037145;28;20063;-60
2022/05/27 02:41:29;;;;;;;16.70;2.58;;;11.00;99.90;;;;;;5038551;28;20092;-60
2022/05/27 02:44:04;;;;;;;20.20;2.63;;;11.00;99.90;;;;;;5037742;28;20522;-60
2022/05/27 02:46:38;;;;;;;21.05;2.40;;;10.80;99.90;;;;;;5036508;28;20045;-60
2022/05/27 02:49:13;;;;;;;19.35;2.40;;;10.80;99.90;;;;;;5031273;28;20080;-60
2022/05/27 02:52:07;;;;;;;15.38;2.47;;;10.90;99.90;;;;;;5033869;28;20391;-61
2022/05/27 02:54:51;;;;;;;18.88;3.10;;;10.80;99.90;;;;;;5033337;28;20405;-60
2022/05/27 02:57:27;;;;;;;16.88;1.88;;;10.90;99.90;;;;;;5033702;28;20049;-61
2022/05/27 02:59:54;;;;;;;14.15;1.75;;;10.80;99.90;;;;;;5036610;28;20037;-61
2022/05/27 03:02:20;;;;;;;11.82;1.73;;;10.80;99.90;;;;;;5036438;28;20053;-61
2022/05/27 03:04:54;;;;;;;16.38;1.85;;;10.80;99.90;;;;;;5034025;28;20107;-61
2022/05/27 03:07:33;;;;;;;14.10;2.25;;;10.90;99.90;;;;;;5044169;28;20377;-61
2022/05/27 03:10:14;;;;;;;18.15;1.98;;;10.80;99.90;;;;;;5035492;28;20465;-60
2022/05/27 03:12:50;;;;;;;20.45;2.50;;;10.80;99.90;;;;;;5033457;28;20049;-60
2022/05/27 03:15:30;;;;;;;12.32;1.65;;;10.70;99.90;;;;;;5037981;28;20095;-60
2022/05/27 03:17:59;;;;;;;17.65;1.90;;;10.70;99.90;;;;;;5036372;28;20071;-60
2022/05/27 03:21:17;;;;;;;13.10;1.92;;;10.80;99.90;;;;;;5038011;28;20064;-60
2022/05/27 03:24:09;;;;;;;17.52;1.90;;;10.70;99.90;;;;;;4960727;28;20046;-60
2022/05/27 03:27:02;;;;;;;15.73;2.05;;;10.70;99.90;;;;;;4963804;28;21006;-61
2022/05/27 03:29:34;;;;;;;9.63;1.10;;;10.70;99.90;;;;;;5022972;28;20096;-61
2022/05/27 03:31:59;;;;;;;15.65;1.20;;;10.80;99.90;;;;;;5035987;28;21009;-60
2022/05/27 03:34:48;;;;;;;16.42;1.90;;;10.80;99.90;;;;;;5033591;28;20476;-61
2022/05/27 03:37:43;;;;;;;13.75;1.75;;;10.80;99.90;;;;;;5029889;28;20095;-61
2022/05/27 03:40:11;;;;;;;12.88;1.45;;;10.80;99.90;;;;;;5027212;28;20096;-62
2022/05/27 03:42:40;;;;;;;20.60;1.95;;;10.80;99.90;;;;;;5026945;28;20079;-62
2022/05/27 03:45:24;;;;;;;12.25;1.63;;;10.80;99.90;;;;;;5034649;28;20320;-62
2022/05/27 03:47:51;;;;;;;11.13;1.70;;;10.70;99.90;;;;;;5034974;28;20033;-62
2022/05/27 03:50:21;;;;;;;14.50;1.67;;;10.70;99.90;;;;;;5021663;28;20554;-62
2022/05/27 03:52:49;;;;;;;14.27;1.90;;;10.70;99.90;;;;;;5033447;28;20410;-60
2022/05/27 03:55:17;;;;;;;13.15;1.20;;;10.60;99.90;;;;;;5036786;28;20041;-60
2022/05/27 03:57:43;;;;;;;10.35;1.48;;;10.50;99.90;;;;;;5028525;28;20063;-61
2022/05/27 04:00:11;;;;;;;11.40;2.28;;;10.50;99.90;;;;;;5043865;28;20359;-61
2022/05/27 04:02:38;;;;;;;11.90;1.17;;;10.40;99.90;;;;;;5024354;28;20037;-61
2022/05/27 04:05:05;;;;;;;12.02;1.77;;;10.50;99.90;;;;;;5031171;28;20479;-60
2022/05/27 04:07:31;;;;;;;13.55;1.55;;;10.50;99.90;;;;;;5049132;28;20122;-60
2022/05/27 04:09:56;;;;;;;13.40;1.83;;;10.40;99.90;;;;;;5037713;28;20551;-60
2022/05/27 04:12:22;;;;;;;12.52;1.20;;;10.40;99.90;;;;;;5008422;28;20030;-60
2022/05/27 04:14:52;;;;;;;12.93;2.03;;;10.40;99.90;;;;;;5042774;28;20141;-59
2022/05/27 04:17:30;;;;;;;12.10;1.60;;;10.50;99.90;;;;;;5040536;28;20087;-60
2022/05/27 04:20:08;;;;;;;10.75;1.90;;;10.50;99.90;;;;;;5041492;28;20072;-60
2022/05/27 04:22:34;;;;;;;12.60;1.75;;;10.40;99.90;;;;;;5040336;28;20503;-61
2022/05/27 04:25:01;;;;;;;19.20;1.70;;;10.40;99.90;;;;;;5025647;28;20490;-60
2022/05/27 04:27:27;;;;;;;15.25;1.73;;;10.40;99.90;;;;;;5037979;28;20087;-60
2022/05/27 04:29:54;;;;;;;14.25;1.30;;;10.40;99.90;;;;;;5040091;28;20518;-60
2022/05/27 04:32:25;;;;;;;14.15;1.88;;;10.60;99.90;;;;;;5033195;28;20045;-61
2022/05/27 04:34:55;;;;;;;16.73;1.92;;;10.60;99.90;;;;;;5039033;28;20071;-62
2022/05/27 04:37:22;;;;;;;13.82;2.00;;;10.70;99.90;;;;;;5038807;28;20063;-61
2022/05/27 04:39:48;;;;;;;13.40;1.75;;;10.80;99.90;;;;;;5022402;28;20036;-60
2022/05/27 04:42:14;;;;;;;10.93;1.50;;;10.90;99.90;;;;;;5038410;28;20071;-61
2022/05/27 04:44:40;;;;;;;11.63;1.55;;;11.00;99.90;;;;;;5022467;28;20115;-61
2022/05/27 04:47:07;;;;;;;15.10;1.98;;;11.00;99.90;;;;;;5042300;28;20048;-61
2022/05/27 04:49:53;;;;;;;15.90;2.13;;;11.00;99.90;;;;;;5029883;28;20064;-61
2022/05/27 04:52:31;;;;;;;12.65;1.80;;;11.10;99.90;;;;;;5049324;28;20176;-60
2022/05/27 04:54:59;;;;;;;10.48;1.52;;;11.10;99.90;;;;;;5019779;28;20068;-61
2022/05/27 04:57:30;;;;;;;10.18;1.48;;;11.20;99.90;;;;;;5033592;28;20355;-59
2022/05/27 04:59:56;;;;;;;14.18;2.08;;;11.30;99.90;;;;;;5031257;28;20042;-61
2022/05/27 05:02:23;;;;;;;12.55;1.80;;;11.40;99.90;;;;;;5036220;28;20072;-60
2022/05/27 05:04:50;;;;;;;12.80;2.42;;;11.50;99.90;;;;;;5033200;28;20061;-60
2022/05/27 05:07:18;;;;;;;17.27;2.20;;;11.60;99.90;;;;;;5034713;28;20573;-60
2022/05/27 05:09:44;;;;;;;19.98;2.20;;;11.60;99.90;;;;;;5040020;28;20037;-60
2022/05/27 05:12:11;;;;;;;15.85;2.83;;;11.70;99.90;;;;;;5036926;28;20135;-60
2022/05/27 05:14:38;;;;;;;17.08;2.72;;;11.80;99.90;;;;;;5035880;28;20049;-60
2022/05/27 05:17:04;;;;;;;15.05;1.80;;;11.80;99.90;;;;;;5027133;28;20040;-61
2022/05/27 05:19:30;;;;;;;14.93;2.13;;;11.80;99.90;;;;;;5050892;28;20046;-60
2022/05/27 05:21:55;;;;;;;14.57;2.05;;;11.70;99.90;;;;;;5035230;28;20037;-61
2022/05/27 05:24:22;;;;;;;14.18;2.20;;;11.70;99.90;;;;;;5033432;28;20073;-60
2022/05/27 05:26:48;;;;;;;18.60;1.98;;;11.70;99.90;;;;;;5041499;28;20123;-60
2022/05/27 05:29:14;;;;;;;15.38;2.22;;;11.70;99.90;;;;;;5035695;28;20083;-61
2022/05/27 05:31:39;;;;;;;11.52;2.40;;;11.70;99.90;;;;;;5031044;28;20041;-61
2022/05/27 05:34:05;;;;;;;21.00;2.55;;;11.80;99.90;;;;;;5037135;28;20033;-61
2022/05/27 05:36:31;;;;;;;16.05;2.63;;;11.80;99.90;;;;;;5026301;28;20088;-61
2022/05/27 05:38:58;;;;;;;12.57;1.80;;;11.80;99.90;;;;;;5052044;28;20037;-60
2022/05/27 05:41:30;;;;;;;21.90;3.05;;;11.80;99.90;;;;;;5035664;28;20036;-60
2022/05/27 05:43:56;;;;;;;20.98;2.47;;;11.90;99.90;;;;;;5041108;28;20564;-61
2022/05/27 05:46:23;;;;;;;19.27;2.72;;;11.90;99.90;;;;;;5030428;28;20153;-61
2022/05/27 05:48:49;;;;;;;14.65;2.15;;;12.00;99.90;;;;;;5040742;28;20057;-61
2022/05/27 05:51:16;;;;;;;17.98;2.80;;;12.20;99.90;;;;;;5040639;28;20526;-61
2022/05/27 05:53:41;;;;;;;20.02;3.15;;;12.50;99.90;;;;;;5053135;28;20105;-60
2022/05/27 05:56:07;;;;;;;16.75;3.05;;;12.90;99.90;;;;;;5033544;28;20124;-60
2022/05/27 05:58:33;;;;;;;15.52;2.33;;;13.00;99.90;;;;;;5055677;28;20503;-60
2022/05/27 06:00:58;;;;;;;16.00;2.50;;;13.10;99.90;;;;;;5021765;28;20037;-61
2022/05/27 06:03:24;;;;;;;17.98;2.60;;;13.00;99.90;;;;;;5038185;28;20047;-60
2022/05/27 06:05:52;;;;;;;19.65;2.75;;;13.10;99.90;;;;;;5029391;28;20087;-60
2022/05/27 06:08:20;;;;;;;15.68;2.50;;;13.20;99.90;;;;;;5052629;28;20095;-60
2022/05/27 06:10:46;;;;;;;17.63;2.90;;;13.00;99.90;;;;;;5029347;28;20483;-61
2022/05/27 06:13:12;;;;;;;16.58;2.30;;;12.70;99.90;;;;;;5038558;28;20035;-61
2022/05/27 06:15:39;;;;;;;14.38;1.95;;;12.60;99.90;;;;;;5038176;28;20041;-61
2022/05/27 06:18:06;;;;;;;11.88;2.50;;;12.90;99.90;;;;;;5033668;28;20041;-61
2022/05/27 06:20:33;;;;;;;16.33;2.20;;;13.20;99.90;;;;;;5039226;28;20041;-61
2022/05/27 06:23:02;;;;;;;16.95;1.92;;;13.40;99.90;;;;;;5055162;28;20037;-61
2022/05/27 06:25:27;;;;;;;15.50;2.78;;;13.60;99.90;;;;;;5038358;28;20034;-60
2022/05/27 06:34:23;;;;;;;15.52;2.20;;;13.80;99.90;;;;;;5034741;28;20421;-60
2022/05/27 06:36:12;;;;;;;12.45;2.63;;;14.50;99.90;;;;;;5030908;28;20065;-61
2022/05/27 06:38:38;;;;;;;14.82;2.30;;;14.60;99.90;;;;;;5039951;28;20037;-61
2022/05/27 06:41:04;;;;;;;11.75;1.70;;;14.40;99.90;;;;;;5037609;28;20103;-61
2022/05/27 06:43:31;;;;;;;14.15;2.05;;;14.40;99.90;;;;;;5056168;28;20049;-60
2022/05/27 06:45:58;;;;;;;11.32;1.65;;;14.20;99.90;;;;;;5051459;28;20116;-60
2022/05/27 06:48:24;;;;;;;12.18;2.00;;;14.00;99.90;;;;;;5035778;28;20056;-60
2022/05/27 06:50:50;;;;;;;15.43;2.13;;;13.90;99.90;;;;;;5053927;28;20037;-60
2022/05/27 06:53:15;;;;;;;15.50;2.10;;;14.00;99.90;;;;;;5036266;28;20519;-60
2022/05/27 06:55:41;;;;;;;16.25;2.22;;;14.20;99.90;;;;;;5044575;28;20475;-60
2022/05/27 06:58:07;;;;;;;13.43;2.55;;;14.10;99.90;;;;;;5041052;28;20036;-60
2022/05/27 07:00:32;;;;;;;12.50;1.73;;;14.40;99.90;;;;;;5055778;28;20036;-61
2022/05/27 07:02:58;;;;;;;17.88;2.33;;;14.40;99.90;;;;;;5038413;28;20036;-61
2022/05/27 07:05:24;;;;;;;12.30;1.70;;;14.50;99.90;;;;;;5053466;28;20534;-62
2022/05/27 07:07:50;;;;;;;13.98;2.08;;;14.40;99.90;;;;;;5053734;28;20491;-61
2022/05/27 07:10:16;;;;;;;16.48;2.15;;;14.40;99.90;;;;;;5057786;28;20520;-61
2022/05/27 07:12:42;;;;;;;11.82;1.70;;;14.50;99.90;;;;;;5038315;28;20038;-61
2022/05/27 07:15:08;;;;;;;15.38;2.15;;;14.70;99.90;;;;;;5038634;28;20029;-62
2022/05/27 07:17:35;;;;;;;14.30;2.25;;;14.80;99.90;;;;;;5029465;28;20029;-61
2022/05/27 07:20:05;;;;;;;15.50;2.15;;;15.00;99.90;;;;;;5038822;28;20816;-61
2022/05/27 07:22:30;;;;;;;18.25;2.50;;;15.00;99.90;;;;;;5053776;28;20038;-61
2022/05/27 07:24:56;;;;;;;13.52;2.22;;;14.60;99.90;;;;;;5041526;28;20445;-59
2022/05/27 07:27:22;;;;;;;14.65;1.75;;;14.20;99.90;;;;;;5039940;28;20037;-62
2022/05/27 07:29:47;;;;;;;15.32;1.92;;;13.90;99.90;;;;;;5032730;28;20484;-60
2022/05/27 07:32:14;;;;;;;14.32;2.03;;;14.00;99.90;;;;;;5057664;28;20499;-61
2022/05/27 07:34:40;;;;;;;12.73;2.17;;;14.10;99.90;;;;;;5043377;28;20037;-60
2022/05/27 07:37:06;;;;;;;11.25;1.70;;;14.40;99.90;;;;;;5045488;28;20113;-62
2022/05/27 07:39:31;;;;;;;11.15;1.95;;;14.40;99.90;;;;;;5041624;28;20122;-59
2022/05/27 07:41:57;;;;;;;11.85;1.88;;;14.50;99.90;;;;;;5054387;28;20112;-60
2022/05/27 07:44:23;;;;;;;15.15;2.17;;;14.70;99.90;;;;;;5054547;28;20047;-60
2022/05/27 07:46:54;;;;;;;11.40;1.60;;;14.70;99.90;;;;;;5052918;28;20040;-61
2022/05/27 07:49:19;;;;;;;9.30;1.48;;;14.90;99.90;;;;;;5053534;28;20474;-60
2022/05/27 07:51:46;;;;;;;9.15;1.48;;;14.50;99.90;;;;;;5047244;28;20042;-62
2022/05/27 07:54:12;;;;;;;14.93;2.25;;;14.50;99.90;;;;;;5035120;28;20103;-61
2022/05/27 07:56:39;;;;;;;15.50;2.13;;;14.70;99.90;;;;;;5037543;28;20116;-60
2022/05/27 07:59:05;;;;;;;14.15;2.03;;;14.90;99.90;;;;;;5043960;28;20124;-61
2022/05/27 08:01:31;;;;;;;8.70;1.58;;;15.30;99.90;;;;;;5039312;28;20029;-61
2022/05/27 08:03:57;;;;;;;13.20;2.10;;;15.30;99.90;;;;;;5034721;28;21297;-62
2022/05/27 08:06:23;;;;;;;12.18;2.08;;;14.90;99.90;;;;;;5037880;28;20100;-61
2022/05/27 08:08:49;;;;;;;14.82;2.60;;;14.60;99.90;;;;;;5043751;28;20065;-61
2022/05/27 08:11:15;;;;;;;15.73;2.20;;;14.80;99.90;;;;;;5023277;28;20145;-61
2022/05/27 08:13:42;;;;;;;21.05;2.83;;;14.90;99.90;;;;;;5042987;28;20041;-61
2022/05/27 08:16:09;;;;;;;13.20;1.90;;;14.70;99.90;;;;;;5052014;28;20037;-62
2022/05/27 08:18:34;;;;;;;13.88;1.95;;;14.70;99.90;;;;;;5037937;28;20491;-60
2022/05/27 08:21:00;;;;;;;16.67;2.40;;;14.60;99.90;;;;;;5017491;28;20045;-60
2022/05/27 08:23:26;;;;;;;17.80;3.13;;;14.20;99.90;;;;;;5018722;28;20122;-61
2022/05/27 08:25:55;;;;;;;13.77;2.13;;;14.10;99.90;;;;;;5038770;28;20120;-60
2022/05/27 08:28:24;;;;;;;16.38;2.50;;;14.30;99.90;;;;;;5041044;28;20459;-60
2022/05/27 08:30:51;;;;;;;15.77;2.50;;;14.70;99.90;;;;;;5038301;28;20473;-60
2022/05/27 08:33:16;;;;;;;14.30;2.03;;;15.00;99.90;;;;;;5037151;28;20500;-60
2022/05/27 08:38:30;;;;;;;14.95;2.00;;;15.20;99.90;;;;;;5038291;28;20048;-60
2022/05/27 08:41:08;;;;;;;15.30;1.90;;;15.00;99.90;;;;;;5039099;28;20045;-59
2022/05/27 08:43:59;;;;;;;11.02;1.73;;;15.00;99.90;;;;;;5044791;28;20033;-60
2022/05/27 08:47:12;;;;;;;11.90;1.58;;;15.20;99.90;;;;;;5039040;28;20042;-60
2022/05/27 08:49:44;;;;;;;10.65;1.63;;;15.60;99.90;;;;;;5028891;28;20521;-60
2022/05/27 08:52:33;;;;;;;13.90;1.65;;;15.40;99.90;;;;;;5035220;28;20042;-60
2022/05/27 08:55:06;;;;;;;13.98;2.15;;;15.20;99.90;;;;;;5036195;28;20049;-61
2022/05/27 09:00:27;;;;;;;14.35;1.88;;;14.90;99.90;;;;;;5044318;28;20053;-60
2022/05/27 09:02:56;;;;;;;12.15;1.58;;;14.70;99.90;;;;;;5036913;28;20034;-61
2022/05/27 09:05:32;;;;;;;17.60;2.22;;;14.70;99.90;;;;;;5033076;28;20191;-61
2022/05/27 09:08:02;;;;;;;12.10;1.92;;;14.70;99.90;;;;;;5052595;28;20092;-61
2022/05/27 09:10:33;;;;;;;14.90;2.10;;;14.60;99.90;;;;;;5031660;28;20561;-61
2022/05/27 09:13:10;;;;;;;11.30;1.95;;;15.20;99.90;;;;;;5046012;28;20037;-61
2022/05/27 09:16:00;;;;;;;16.52;2.03;;;15.90;99.90;;;;;;5030408;28;20041;-61
2022/05/27 09:18:40;;;;;;;12.68;2.03;;;16.40;99.90;;;;;;5041083;28;20037;-60
2022/05/27 09:21:37;;;;;;;14.20;1.95;;;15.80;99.90;;;;;;5031901;28;20061;-61
2022/05/27 09:24:12;;;;;;;11.55;2.10;;;15.00;99.90;;;;;;5038572;28;20079;-62
2022/05/27 09:26:48;;;;;;;18.83;2.47;;;14.90;99.90;;;;;;5029146;28;20134;-61
2022/05/27 09:29:20;;;;;;;15.90;2.33;;;14.80;99.90;;;;;;5042612;28;20146;-62
2022/05/27 09:31:51;;;;;;;13.68;2.50;;;15.10;99.90;;;;;;5051366;28;20492;-62
2022/05/27 09:34:17;;;;;;;16.25;2.55;;;15.30;99.90;;;;;;5031701;28;20120;-61
2022/05/27 09:36:51;;;;;;;13.38;1.58;;;15.30;99.90;;;;;;5045981;28;20073;-62
2022/05/27 09:39:21;;;;;;;17.55;2.35;;;15.20;99.90;;;;;;5035292;28;20049;-60
2022/05/27 09:41:59;;;;;;;13.65;1.80;;;14.80;99.90;;;;;;5026993;28;20045;-61
2022/05/27 09:44:36;;;;;;;13.13;1.92;;;15.00;99.90;;;;;;5036989;28;20098;-61
2022/05/27 09:47:03;;;;;;;11.77;1.92;;;15.30;99.90;;;;;;5027392;28;20395;-60
2022/05/27 09:49:31;;;;;;;13.80;1.80;;;15.20;99.90;;;;;;5033392;28;20095;-61
2022/05/27 09:51:58;;;;;;;16.10;2.28;;;15.00;99.90;;;;;;5034374;28;20245;-60
2022/05/27 09:55:05;;;;;;;14.15;1.85;;;15.20;99.90;;;;;;5034349;28;20056;-61
2022/05/27 09:57:32;;;;;;;12.75;2.10;;;15.30;99.90;;;;;;5013929;28;20057;-61
2022/05/27 10:00:05;;;;;;;14.13;2.25;;;14.80;99.90;;;;;;5044216;28;20118;-62
2022/05/27 10:02:36;;;;;;;16.05;2.50;;;14.70;99.90;;;;;;5034540;28;20041;-62
2022/05/27 10:05:07;;;;;;;16.38;2.35;;;15.20;99.90;;;;;;5015025;28;20135;-61
2022/05/27 10:07:44;;;;;;;18.42;2.58;;;15.10;99.90;;;;;;5026966;28;20041;-60
2022/05/27 10:10:25;;;;;;;11.80;2.17;;;15.20;99.90;;;;;;5033312;28;20088;-61
2022/05/27 10:12:51;;;;;;;16.85;2.25;;;15.50;99.90;;;;;;5017732;28;20041;-60
2022/05/27 10:15:50;;;;;;;12.52;2.10;;;15.40;99.90;;;;;;5037250;28;20076;-60
2022/05/27 10:18:25;;;;;;;15.48;2.22;;;15.30;99.90;;;;;;4974016;28;20044;-61
2022/05/27 10:21:04;;;;;;;16.02;2.42;;;15.60;99.90;;;;;;5025375;28;20068;-62
2022/05/27 10:23:35;;;;;;;17.10;2.40;;;15.20;99.90;;;;;;5041960;28;20045;-60
2022/05/27 10:26:29;;;;;;;14.50;2.35;;;14.90;99.90;;;;;;5038995;28;20037;-60
2022/05/27 10:29:16;;;;;;;17.58;2.65;;;14.70;99.90;;;;;;5041273;28;20041;-60
2022/05/27 10:31:56;;;;;;;16.38;2.05;;;14.70;99.90;;;;;;5038023;28;20388;-60
2022/05/27 10:34:37;;;;;;;12.15;2.17;;;14.90;99.90;;;;;;5048776;28;20049;-59
2022/05/27 10:37:33;;;;;;;15.55;2.75;;;15.10;99.90;;;;;;5033274;28;20506;-60
2022/05/27 10:40:17;;;;;;;15.48;2.88;;;15.10;99.90;;;;;;5039800;28;20082;-61
2022/05/27 10:43:02;;;;;;;16.48;2.45;;;14.90;99.90;;;;;;5044012;28;20128;-60
2022/05/27 10:45:32;;;;;;;15.90;2.42;;;15.20;99.90;;;;;;5032976;28;20072;-59
2022/05/27 10:48:40;;;;;;;14.90;2.20;;;15.30;99.90;;;;;;5038181;28;20073;-60
2022/05/27 10:51:14;;;;;;;15.32;2.08;;;15.40;99.90;;;;;;5053002;28;20503;-62
2022/05/27 10:54:16;;;;;;;10.48;1.70;;;15.20;99.90;;;;;;5037546;28;20122;-60
2022/05/27 11:03:24;;;;;;;10.88;1.95;;;16.00;99.90;;;;;;4980555;28;20055;-62
2022/05/27 11:06:04;;;;;;;12.30;1.90;;;16.20;99.90;;;;;;5007960;28;20073;-60
2022/05/27 11:08:33;;;;;;;8.90;1.42;;;15.70;99.90;;;;;;4997480;28;20062;-59
2022/05/27 11:11:13;;;;;;;20.40;2.53;;;15.50;99.90;;;;;;4989212;28;20129;-59
2022/05/27 11:16:42;;;;;;;12.70;2.30;;;15.50;99.90;;;;;;5000588;28;20045;-60
2022/05/27 11:19:13;;;;;;;13.80;2.13;;;15.30;99.90;;;;;;4995338;28;20042;-59
2022/05/27 11:22:21;;;;;;;11.85;2.08;;;15.50;99.90;;;;;;4995189;28;20085;-59
2022/05/27 11:25:09;;;;;;;15.73;2.08;;;15.50;99.90;;;;;;4996290;28;20093;-59
2022/05/27 11:27:44;;;;;;;11.18;1.55;;;15.50;99.90;;;;;;4975952;28;20053;-59
2022/05/27 11:30:24;;;;;;;13.27;1.92;;;15.70;99.90;;;;;;5023334;28;20034;-59
2022/05/27 11:33:16;;;;;;;15.15;2.30;;;15.50;99.90;;;;;;5021136;28;20050;-61
2022/05/27 11:36:10;;;;;;;14.07;2.23;;;15.50;99.90;;;;;;5014951;28;20046;-60
2022/05/27 11:38:55;;;;;;;12.13;1.77;;;15.60;99.90;;;;;;5033291;28;20054;-62
2022/05/27 11:41:30;;;;;;;13.30;1.95;;;15.00;99.90;;;;;;5014325;28;20412;-61
2022/05/27 11:44:18;;;;;;;18.38;3.05;;;14.60;99.90;;;;;;5011484;28;20076;-61
2022/05/27 11:47:02;;;;;;;12.60;1.98;;;14.80;99.90;;;;;;5030607;28;20050;-61
2022/05/27 11:49:57;;;;;;;11.95;1.90;;;15.90;99.90;;;;;;5030865;28;20049;-61
2022/05/27 11:52:47;;;;;;;10.52;2.08;;;15.40;99.90;;;;;;5014410;28;20111;-61
2022/05/27 11:55:30;;;;;;;13.80;2.15;;;15.70;99.90;;;;;;5022255;28;20163;-62
2022/05/27 11:58:18;;;;;;;12.50;1.10;;;15.80;99.90;;;;;;5012202;28;20053;-61
2022/05/27 12:01:01;;;;;;;15.68;2.17;;;15.60;99.90;;;;;;5024265;28;20397;-61
2022/05/27 12:03:58;;;;;;;14.60;2.20;;;15.50;99.90;;;;;;5032995;28;20084;-61
2022/05/27 12:06:32;;;;;;;11.38;2.03;;;15.40;99.90;;;;;;5029129;28;20140;-62
2022/05/27 12:09:04;;;;;;;12.30;1.73;;;15.40;99.90;;;;;;5033274;28;20041;-61
2022/05/27 12:11:51;;;;;;;9.10;1.40;;;15.40;99.90;;;;;;5056851;28;20045;-63
2022/05/27 12:14:32;;;;;;;9.18;1.50;;;15.60;99.90;;;;;;5038953;28;20358;-61
2022/05/27 12:17:00;;;;;;;9.35;1.30;;;16.00;99.90;;;;;;5041067;28;20076;-61
2022/05/27 12:19:33;;;;;;;8.35;1.30;;;16.00;99.90;;;;;;5051879;28;20391;-61
2022/05/27 12:22:11;;;;;;;9.98;1.50;;;15.90;99.90;;;;;;5021387;28;20053;-61
2022/05/27 12:24:54;;;;;;;9.45;1.50;;;16.10;99.90;;;;;;5054532;28;20060;-61
2022/05/27 12:27:20;;;;;;;10.65;1.70;;;16.40;99.90;;;;;;5040189;28;20053;-61
2022/05/27 12:29:49;;;;;;;9.88;1.42;;;16.90;99.90;;;;;;5037873;28;20039;-61
2022/05/27 12:32:17;;;;;;;10.85;1.90;;;16.90;99.60;;;;;;5040204;28;20449;-62
2022/05/27 12:34:48;;;;;;;14.80;2.15;;;16.00;99.90;;;;;;5040099;28;20059;-61
2022/05/27 12:37:25;;;;;;;14.60;2.22;;;15.70;99.90;;;;;;5037967;28;20048;-60
2022/05/27 12:40:11;;;;;;;12.10;2.13;;;15.50;99.90;;;;;;5045416;28;20029;-60
2022/05/27 12:42:40;;;;;;;12.20;1.95;;;16.10;99.90;;;;;;5053847;28;20064;-61
2022/05/27 12:45:18;;;;;;;12.82;1.50;;;16.70;99.90;;;;;;5048196;28;20037;-61
2022/05/27 12:47:49;;;;;;;13.15;1.60;;;17.20;95.70;;;;;;5040774;28;20045;-61
2022/05/27 12:50:28;;;;;;;18.45;2.05;;;17.60;94.70;;;;;;5038883;28;20550;-61
2022/05/27 12:52:59;;;;;;;10.20;1.40;;;16.70;99.20;;;;;;5035953;28;20518;-62
2022/05/27 13:00:55;;;;;;;14.60;2.13;;;16.20;99.90;;;;;;5039302;28;20037;-61
2022/05/27 13:01:30;;;;;;;10.75;1.83;;;16.30;99.90;;;;;;5055387;28;20111;-61
2022/05/27 13:04:02;;;;;;;16.60;2.88;;;16.30;99.90;;;;;;5026576;28;20118;-61
2022/05/27 13:06:31;;;;;;;15.63;2.15;;;15.80;99.90;;;;;;5043949;28;20053;-61
2022/05/27 13:09:00;;;;;;;14.07;2.35;;;15.40;99.90;;;;;;5040626;28;20045;-60
2022/05/27 13:11:35;;;;;;;12.93;2.03;;;15.00;99.90;;;;;;5041164;28;20048;-61
2022/05/27 13:14:03;;;;;;;13.10;1.75;;;15.20;99.90;;;;;;5033870;28;20038;-61
2022/05/27 13:17:06;;;;;;;12.70;1.98;;;15.60;99.90;;;;;;5039757;28;20563;-61
2022/05/27 13:19:40;;;;;;;15.70;1.83;;;15.30;99.90;;;;;;5026650;28;20078;-62
2022/05/27 13:22:15;;;;;;;16.92;1.67;;;15.70;99.90;;;;;;5034624;28;20037;-61
2022/05/27 13:24:45;;;;;;;10.35;1.77;;;15.80;99.90;;;;;;5030953;28;20056;-61
2022/05/27 13:27:32;;;;;;;9.50;1.17;;;16.50;99.90;;;;;;5059810;28;20142;-61
2022/05/27 13:30:09;;;;;;;13.60;1.88;;;16.70;99.90;;;;;;5037045;28;20120;-61
2022/05/27 13:33:05;;;;;;;11.73;1.98;;;17.20;99.90;;;;;;5041002;28;20045;-61
2022/05/27 13:35:44;;;;;;;13.73;1.90;;;17.50;98.50;;;;;;5043021;28;20438;-61
2022/05/27 13:38:12;;;;;;;11.02;1.95;;;17.10;96.30;;;;;;5018929;28;20120;-61